Time;durP1;ratioP1;P1;durP2;ratioP2;P2;SDS_P1;SDS_P2;PMS_P1;PMS_P2;Temp;Humidity;BMP_temperature;BMP_pressure;BME280_temperature;BME280_humidity;BME280_pressure;Samples;Min_cycle;Max_cycle;Signal;HPM_P1;HPM_P2
2022/10/05 00:00:19;;;;;;;9.48;5.07;;;12.50;99.90;;;;;;4943040;28;20035;-82
2022/10/05 00:02:45;;;;;;;9.35;5.38;;;12.50;99.90;;;;;;4931560;28;20074;-82
2022/10/05 00:05:32;;;;;;;10.18;4.80;;;12.50;99.90;;;;;;4957953;28;20086;-82
2022/10/05 00:08:03;;;;;;;;;;;12.50;99.90;;;;;;4947503;28;20519;-82
2022/10/05 00:10:29;;;;;;;5.70;4.03;;;12.60;99.90;;;;;;4924193;29;19910;-82
2022/10/05 00:12:54;;;;;;;9.52;5.55;;;12.60;99.90;;;;;;4940418;28;20046;-81
2022/10/05 00:15:21;;;;;;;6.13;4.28;;;12.60;99.90;;;;;;4955242;28;20115;-82
2022/10/05 00:17:46;;;;;;;9.02;5.28;;;12.60;99.90;;;;;;4945631;28;20445;-82
2022/10/05 00:20:24;;;;;;;5.00;3.63;;;12.70;99.90;;;;;;4944494;28;20039;-81
2022/10/05 00:23:00;;;;;;;9.23;5.20;;;12.70;99.90;;;;;;4940256;28;20537;-82
2022/10/05 00:25:25;;;;;;;7.57;5.03;;;12.70;99.90;;;;;;4925460;28;20050;-82
2022/10/05 00:27:56;;;;;;;6.38;5.07;;;12.60;99.90;;;;;;4927431;28;20509;-82
2022/10/05 00:30:22;;;;;;;9.73;6.07;;;12.70;99.90;;;;;;4922778;28;20138;-84
2022/10/05 00:32:48;;;;;;;10.05;5.50;;;12.80;99.90;;;;;;4940954;28;20028;-84
2022/10/05 00:35:14;;;;;;;15.23;6.03;;;12.80;99.90;;;;;;4930121;28;20035;-84
2022/10/05 00:37:40;;;;;;;9.55;4.95;;;12.80;99.90;;;;;;4925019;28;20032;-83
2022/10/05 00:40:35;;;;;;;8.05;5.18;;;12.80;99.90;;;;;;4943892;28;20046;-84
2022/10/05 00:43:18;;;;;;;9.85;5.40;;;12.90;99.90;;;;;;4956407;28;20039;-84
2022/10/05 00:45:49;;;;;;;10.32;5.03;;;12.90;99.90;;;;;;4956986;28;20046;-84
2022/10/05 00:48:35;;;;;;;9.10;4.93;;;12.90;99.90;;;;;;4948410;28;20032;-84
2022/10/05 00:51:20;;;;;;;9.85;4.97;;;12.90;99.90;;;;;;4954241;28;20038;-83
2022/10/05 00:53:53;;;;;;;6.35;4.30;;;12.90;99.90;;;;;;4957574;28;20039;-83
2022/10/05 00:56:32;;;;;;;8.40;5.47;;;12.90;99.90;;;;;;4976559;28;20042;-84
2022/10/05 00:59:17;;;;;;;8.25;4.85;;;12.90;99.90;;;;;;4956787;28;20043;-84
2022/10/05 01:01:56;;;;;;;5.57;4.28;;;12.90;99.90;;;;;;4960391;28;20031;-84
2022/10/05 01:04:29;;;;;;;8.73;4.40;;;12.90;99.90;;;;;;4955932;28;20407;-84
2022/10/05 01:07:04;;;;;;;7.63;4.63;;;12.90;99.90;;;;;;4960621;28;20041;-84
2022/10/05 01:09:37;;;;;;;7.68;4.60;;;13.00;99.90;;;;;;4948671;28;20034;-84
2022/10/05 01:12:28;;;;;;;10.18;5.65;;;12.90;99.90;;;;;;4958604;28;20035;-84
2022/10/05 01:15:05;;;;;;;8.38;5.45;;;12.90;99.90;;;;;;4946296;28;20368;-84
2022/10/05 01:17:55;;;;;;;6.85;4.95;;;13.00;99.90;;;;;;4940271;28;20096;-83
2022/10/05 01:20:48;;;;;;;7.25;5.20;;;13.00;99.90;;;;;;4948895;28;20539;-83
2022/10/05 01:23:34;;;;;;;9.10;4.38;;;13.00;99.90;;;;;;4956967;28;20031;-84
2022/10/05 01:26:36;;;;;;;11.40;5.32;;;12.90;99.90;;;;;;4959906;28;20494;-84
2022/10/05 01:29:05;;;;;;;9.82;5.28;;;13.00;99.90;;;;;;4955857;28;20451;-83
2022/10/05 01:32:07;;;;;;;6.93;4.95;;;13.00;99.90;;;;;;4963091;28;20042;-83
2022/10/05 01:34:40;;;;;;;8.57;4.85;;;13.00;99.90;;;;;;4929079;28;20543;-84
2022/10/05 01:37:26;;;;;;;11.00;5.28;;;13.00;99.90;;;;;;4937770;28;20065;-83
2022/10/05 01:40:07;;;;;;;8.77;4.65;;;13.00;99.90;;;;;;4949660;28;20023;-83
2022/10/05 01:42:55;;;;;;;11.77;7.45;;;13.00;99.90;;;;;;4974385;28;20483;-83
2022/10/05 01:45:44;;;;;;;9.85;5.50;;;13.00;99.90;;;;;;4956160;28;20031;-83
2022/10/05 01:48:54;;;;;;;7.30;4.80;;;13.10;99.90;;;;;;4961304;28;20023;-83
2022/10/05 01:51:38;;;;;;;12.20;5.03;;;13.00;99.90;;;;;;4933224;28;20043;-83
2022/10/05 01:54:10;;;;;;;10.43;6.13;;;13.00;99.90;;;;;;4956935;28;20027;-84
2022/10/05 01:56:51;;;;;;;10.82;4.85;;;13.00;99.90;;;;;;4955371;28;20035;-83
2022/10/05 01:59:45;;;;;;;12.30;5.63;;;13.00;99.90;;;;;;4956947;28;20089;-85
2022/10/05 02:02:13;;;;;;;9.65;5.47;;;13.00;99.90;;;;;;4944665;28;20054;-85
2022/10/05 02:04:40;;;;;;;9.98;5.72;;;13.00;99.90;;;;;;4961669;28;20039;-85
2022/10/05 02:07:08;;;;;;;9.57;6.38;;;12.90;99.90;;;;;;4964801;28;20035;-84
2022/10/05 02:09:38;;;;;;;10.48;4.53;;;12.90;99.90;;;;;;4958814;28;20439;-85
2022/10/05 02:12:06;;;;;;;12.00;5.65;;;13.00;99.90;;;;;;4927832;28;20027;-83
2022/10/05 02:14:40;;;;;;;10.93;6.20;;;13.10;99.90;;;;;;4924605;28;20031;-84
2022/10/05 02:17:22;;;;;;;11.02;6.32;;;13.00;99.90;;;;;;4939162;28;20038;-83
2022/10/05 02:19:50;;;;;;;10.30;5.63;;;13.00;99.90;;;;;;4940586;28;20069;-84
2022/10/05 02:22:20;;;;;;;7.32;5.30;;;12.90;99.90;;;;;;4957390;28;20510;-85
2022/10/05 02:24:57;;;;;;;8.35;4.93;;;13.00;99.90;;;;;;4941760;28;20041;-85
2022/10/05 02:27:28;;;;;;;11.57;5.53;;;13.00;99.90;;;;;;4930678;28;20045;-85
2022/10/05 02:30:00;;;;;;;9.95;4.53;;;13.00;99.90;;;;;;4943373;28;20035;-85
2022/10/05 02:32:28;;;;;;;6.22;4.78;;;13.10;99.90;;;;;;4942203;28;20039;-85
2022/10/05 02:34:54;;;;;;;10.70;5.32;;;13.00;99.90;;;;;;4924077;28;20078;-85
2022/10/05 02:37:53;;;;;;;9.00;5.60;;;13.00;99.90;;;;;;4939204;28;20035;-85
2022/10/05 02:40:37;;;;;;;7.40;4.82;;;13.00;99.90;;;;;;4950555;28;20523;-85
2022/10/05 02:43:37;;;;;;;10.18;6.13;;;13.00;99.90;;;;;;4950790;28;20511;-84
2022/10/05 02:46:46;;;;;;;6.47;4.43;;;13.00;99.90;;;;;;4967749;28;20794;-85
2022/10/05 02:49:45;;;;;;;10.20;7.65;;;13.00;99.90;;;;;;4915864;28;20082;-85
2022/10/05 02:52:19;;;;;;;11.35;5.53;;;13.00;99.90;;;;;;4948448;28;20031;-85
2022/10/05 02:55:22;;;;;;;11.75;5.50;;;13.00;99.90;;;;;;4936146;28;20032;-85
2022/10/05 02:59:26;;;;;;;9.05;6.10;;;13.00;99.90;;;;;;5026235;27;20445;-84
2022/10/05 03:02:03;;;;;;;9.23;6.07;;;13.00;99.90;;;;;;5048821;28;20034;-85
2022/10/05 03:04:47;;;;;;;7.40;5.63;;;13.00;99.90;;;;;;5033667;28;20392;-85
2022/10/05 03:07:22;;;;;;;8.45;4.88;;;13.00;99.90;;;;;;5045201;28;20052;-85
2022/10/05 03:10:07;;;;;;;10.27;5.70;;;13.00;99.90;;;;;;5042608;28;20421;-84
2022/10/05 03:12:42;;;;;;;8.52;5.72;;;13.00;99.90;;;;;;5030685;28;20034;-84
2022/10/05 03:15:22;;;;;;;8.32;5.60;;;13.00;99.90;;;;;;5029896;28;20490;-85
2022/10/05 03:17:51;;;;;;;10.70;6.07;;;13.00;99.90;;;;;;5019589;28;20090;-84
2022/10/05 03:20:39;;;;;;;7.25;5.45;;;13.00;99.90;;;;;;5030178;28;20487;-84
2022/10/05 03:23:06;;;;;;;10.43;6.10;;;13.00;99.90;;;;;;4990151;28;20026;-84
2022/10/05 03:26:02;;;;;;;8.68;5.18;;;13.00;99.90;;;;;;5020588;28;20108;-84
2022/10/05 03:28:51;;;;;;;7.25;5.40;;;13.00;99.90;;;;;;5016203;28;20038;-84
2022/10/05 03:31:34;;;;;;;9.68;6.07;;;13.10;99.90;;;;;;4978266;28;20037;-85
2022/10/05 03:34:19;;;;;;;8.57;4.65;;;13.00;99.90;;;;;;5029318;28;20441;-84
2022/10/05 03:36:51;;;;;;;12.13;6.80;;;13.10;99.90;;;;;;5020080;28;20025;-84
2022/10/05 03:39:26;;;;;;;5.78;3.63;;;13.00;99.90;;;;;;5020578;28;20026;-84
2022/10/05 03:42:01;;;;;;;6.55;4.68;;;13.00;99.90;;;;;;5017935;28;20030;-84
2022/10/05 03:44:32;;;;;;;6.90;5.45;;;13.00;99.90;;;;;;5041406;28;20030;-85
2022/10/05 03:47:04;;;;;;;10.07;6.00;;;13.00;99.90;;;;;;5008918;28;20461;-85
2022/10/05 03:50:04;;;;;;;10.90;6.97;;;13.00;99.90;;;;;;5000890;28;20030;-85
2022/10/05 03:52:38;;;;;;;10.05;5.55;;;12.90;99.90;;;;;;5004988;28;20493;-85
2022/10/05 03:55:21;;;;;;;7.80;4.93;;;13.00;99.90;;;;;;4994493;28;20034;-84
2022/10/05 03:57:48;;;;;;;10.05;5.88;;;13.00;99.90;;;;;;4983601;28;20084;-84
2022/10/05 04:00:24;;;;;;;9.82;6.22;;;13.00;99.90;;;;;;4984653;28;20570;-85
2022/10/05 04:02:59;;;;;;;8.60;5.80;;;12.90;99.90;;;;;;4998770;28;20069;-84
2022/10/05 04:05:34;;;;;;;10.15;5.78;;;13.00;99.90;;;;;;5019286;28;20093;-84
2022/10/05 04:08:03;;;;;;;9.65;5.72;;;12.90;99.90;;;;;;5005988;28;20477;-84
2022/10/05 04:10:49;;;;;;;8.60;5.53;;;12.80;99.90;;;;;;4980528;28;20034;-85
2022/10/05 04:13:24;;;;;;;;;;;12.80;99.90;;;;;;4978667;28;20509;-84
2022/10/05 04:15:49;;;;;;;9.18;5.53;;;12.80;99.90;;;;;;4995292;28;20372;-85
2022/10/05 04:18:21;;;;;;;10.40;6.38;;;12.70;99.90;;;;;;4996232;28;20029;-84
2022/10/05 04:20:50;;;;;;;8.73;5.93;;;12.80;99.90;;;;;;4998793;28;20239;-84
2022/10/05 04:23:21;;;;;;;9.90;5.75;;;12.60;99.90;;;;;;4976025;28;20042;-85
2022/10/05 04:25:54;;;;;;;7.82;5.63;;;12.50;99.90;;;;;;4970632;28;20027;-84
2022/10/05 04:28:24;;;;;;;10.20;6.63;;;12.50;99.90;;;;;;4979897;28;20419;-83
2022/10/05 04:30:50;;;;;;;6.78;5.85;;;12.40;99.90;;;;;;4984830;28;20085;-84
2022/10/05 04:33:15;;;;;;;7.93;5.47;;;12.40;99.90;;;;;;4968556;28;20433;-84
2022/10/05 04:36:11;;;;;;;11.52;7.10;;;12.50;99.90;;;;;;5011442;28;20487;-83
2022/10/05 04:39:01;;;;;;;9.73;5.38;;;12.40;99.90;;;;;;4969851;28;20097;-83
2022/10/05 04:41:36;;;;;;;7.35;5.47;;;12.40;99.90;;;;;;4982875;28;20494;-84
2022/10/05 04:44:07;;;;;;;10.70;5.78;;;12.50;99.90;;;;;;5012862;28;20490;-84
2022/10/05 04:46:39;;;;;;;9.38;5.65;;;12.50;99.90;;;;;;4985974;28;20030;-84
2022/10/05 04:49:10;;;;;;;8.15;4.97;;;12.50;99.90;;;;;;4995987;28;20046;-84
2022/10/05 04:51:57;;;;;;;7.38;5.38;;;12.50;99.90;;;;;;5012161;28;20023;-84
2022/10/05 04:54:51;;;;;;;10.00;5.45;;;12.60;99.90;;;;;;4981629;28;20038;-84
2022/10/05 04:57:52;;;;;;;8.18;5.68;;;12.60;99.90;;;;;;4988040;28;20506;-84
2022/10/05 05:00:37;;;;;;;8.18;6.10;;;12.60;99.90;;;;;;4989320;28;20034;-84
2022/10/05 05:03:28;;;;;;;9.33;5.93;;;12.60;99.90;;;;;;5008938;28;20498;-84
2022/10/05 05:06:08;;;;;;;9.50;5.00;;;12.60;99.90;;;;;;4969129;28;20262;-84
2022/10/05 05:08:40;;;;;;;11.35;5.63;;;12.70;99.90;;;;;;4969748;28;20050;-84
2022/10/05 05:11:21;;;;;;;7.60;5.10;;;12.70;99.90;;;;;;4984980;28;20030;-84
2022/10/05 05:14:05;;;;;;;10.48;5.72;;;12.60;99.90;;;;;;4996397;28;20036;-84
2022/10/05 05:16:43;;;;;;;7.97;4.13;;;12.70;99.90;;;;;;5029028;28;20042;-84
2022/10/05 05:19:22;;;;;;;8.80;5.13;;;12.70;99.90;;;;;;4975749;28;20109;-84
2022/10/05 05:22:08;;;;;;;11.82;5.50;;;12.80;99.90;;;;;;4943999;28;20503;-84
2022/10/05 05:24:58;;;;;;;9.52;5.53;;;12.80;99.90;;;;;;5006115;28;20419;-84
2022/10/05 05:27:35;;;;;;;5.82;3.53;;;12.80;99.90;;;;;;4981215;28;20029;-84
2022/10/05 05:30:10;;;;;;;8.65;6.25;;;12.90;99.90;;;;;;5010199;28;20936;-85
2022/10/05 05:33:05;;;;;;;10.43;5.28;;;12.90;99.90;;;;;;4998162;28;20031;-84
2022/10/05 05:35:34;;;;;;;9.52;5.63;;;12.90;99.90;;;;;;5015276;28;20065;-84
2022/10/05 05:38:18;;;;;;;11.82;5.57;;;12.90;99.90;;;;;;4982643;28;20326;-84
2022/10/05 05:40:47;;;;;;;13.27;5.78;;;13.00;99.90;;;;;;5000547;28;20061;-85
2022/10/05 05:43:24;;;;;;;10.25;5.18;;;12.90;99.90;;;;;;4985171;28;20431;-84
2022/10/05 05:45:59;;;;;;;4.18;3.22;;;13.00;99.90;;;;;;4949603;28;20030;-84
2022/10/05 05:48:46;;;;;;;7.60;5.33;;;13.00;99.90;;;;;;4963084;28;20514;-85
2022/10/05 05:51:29;;;;;;;8.18;4.25;;;13.10;99.90;;;;;;4979606;28;20623;-84
2022/10/05 05:54:15;;;;;;;10.65;5.45;;;13.10;99.90;;;;;;4972759;28;20034;-84
2022/10/05 05:56:48;;;;;;;8.68;4.88;;;13.00;99.90;;;;;;4985712;28;20031;-84
2022/10/05 05:59:42;;;;;;;7.07;3.80;;;13.10;99.90;;;;;;4996641;28;20027;-84
2022/10/05 06:02:10;;;;;;;6.40;4.57;;;13.10;99.90;;;;;;4989628;28;20258;-85
2022/10/05 06:05:00;;;;;;;12.00;5.13;;;13.20;99.90;;;;;;4987098;28;20076;-84
2022/10/05 06:07:28;;;;;;;9.27;5.20;;;13.20;99.90;;;;;;4967658;28;20101;-84
2022/10/05 06:09:58;;;;;;;7.90;4.22;;;13.20;99.90;;;;;;4962098;28;20031;-85
2022/10/05 06:12:31;;;;;;;11.60;5.60;;;13.30;99.90;;;;;;4979105;28;20494;-85
2022/10/05 06:15:11;;;;;;;6.90;3.80;;;13.30;99.90;;;;;;4952030;28;20296;-84
2022/10/05 06:17:49;;;;;;;5.97;3.65;;;13.30;99.90;;;;;;4969325;28;20041;-84
2022/10/05 06:20:32;;;;;;;5.40;4.47;;;13.40;99.90;;;;;;4949017;28;20108;-85
2022/10/05 06:22:59;;;;;;;5.50;3.97;;;13.40;99.90;;;;;;4978187;28;20149;-85
2022/10/05 06:25:35;;;;;;;4.80;3.05;;;13.40;99.90;;;;;;4952694;28;20062;-85
2022/10/05 06:28:07;;;;;;;9.52;4.28;;;13.40;99.90;;;;;;4969173;28;20514;-85
2022/10/05 06:30:52;;;;;;;5.85;4.57;;;13.50;99.90;;;;;;4983416;28;20041;-85
2022/10/05 06:33:21;;;;;;;6.82;4.38;;;13.50;99.90;;;;;;4976994;28;20023;-84
2022/10/05 06:36:05;;;;;;;7.22;3.53;;;13.50;99.90;;;;;;4977237;28;20108;-84
2022/10/05 06:38:47;;;;;;;8.80;4.43;;;13.60;99.90;;;;;;5010122;28;20038;-84
2022/10/05 06:41:19;;;;;;;5.82;3.20;;;13.60;99.90;;;;;;4981867;28;20026;-84
2022/10/05 06:43:58;;;;;;;8.23;4.15;;;13.70;99.90;;;;;;4995470;28;20146;-84
2022/10/05 06:46:48;;;;;;;5.13;3.78;;;13.70;99.90;;;;;;4979712;28;20498;-84
2022/10/05 06:49:24;;;;;;;5.15;3.92;;;13.70;99.90;;;;;;4992005;28;20038;-84
2022/10/05 06:51:57;;;;;;;;;;;13.80;99.90;;;;;;4980621;28;20030;-84
2022/10/05 06:54:44;;;;;;;5.55;3.20;;;13.90;99.90;;;;;;4993015;28;19916;-84
2022/10/05 06:57:35;;;;;;;5.22;3.95;;;13.90;99.90;;;;;;4975369;28;20049;-84
2022/10/05 07:00:24;;;;;;;12.68;3.60;;;13.90;99.90;;;;;;4980033;28;20034;-84
2022/10/05 07:02:55;;;;;;;10.48;3.65;;;14.00;99.90;;;;;;4971868;28;20038;-84
2022/10/05 07:05:45;;;;;;;8.60;3.92;;;14.10;99.90;;;;;;4968147;28;20038;-84
2022/10/05 07:08:11;;;;;;;5.15;3.67;;;14.10;99.90;;;;;;4963988;28;20490;-84
2022/10/05 07:10:46;;;;;;;9.18;4.05;;;14.10;99.90;;;;;;4960533;28;20031;-84
2022/10/05 07:13:29;;;;;;;7.65;3.58;;;14.20;99.90;;;;;;4976656;28;20034;-84
2022/10/05 07:16:15;;;;;;;4.82;3.38;;;14.20;99.90;;;;;;4998375;28;20124;-85
2022/10/05 07:18:47;;;;;;;7.63;4.45;;;14.30;99.90;;;;;;5003799;28;20410;-85
2022/10/05 07:21:16;;;;;;;8.38;3.75;;;14.30;99.90;;;;;;5028267;28;20027;-84
2022/10/05 07:23:42;;;;;;;9.00;3.72;;;14.40;99.90;;;;;;4994565;28;20045;-84
2022/10/05 07:26:30;;;;;;;6.97;4.70;;;14.40;99.90;;;;;;5006453;28;20548;-84
2022/10/05 07:29:15;;;;;;;7.90;3.65;;;14.40;99.90;;;;;;4973480;28;20035;-84
2022/10/05 07:31:57;;;;;;;7.13;4.35;;;14.40;99.90;;;;;;5006413;28;20054;-84
2022/10/05 07:34:44;;;;;;;5.70;3.50;;;14.50;99.90;;;;;;5009341;28;20034;-84
2022/10/05 07:37:56;;;;;;;6.30;4.22;;;14.50;99.90;;;;;;5023374;28;20288;-84
2022/10/05 07:40:31;;;;;;;3.42;2.72;;;14.60;99.90;;;;;;4982129;28;20034;-84
2022/10/05 07:43:18;;;;;;;4.32;3.42;;;14.60;99.90;;;;;;4994403;28;20023;-84
2022/10/05 07:45:43;;;;;;;2.92;2.42;;;14.60;99.90;;;;;;5008353;28;20141;-84
2022/10/05 07:48:20;;;;;;;7.10;3.67;;;14.60;99.90;;;;;;5009717;28;20570;-84
2022/10/05 07:51:06;;;;;;;7.05;3.58;;;14.60;99.90;;;;;;4969166;28;20046;-84
2022/10/05 07:53:36;;;;;;;3.05;2.20;;;14.70;99.90;;;;;;4970254;28;20022;-84
2022/10/05 07:56:13;;;;;;;7.60;3.92;;;14.70;99.90;;;;;;4962942;28;20035;-84
2022/10/05 07:58:57;;;;;;;6.43;3.58;;;14.70;99.90;;;;;;4968270;28;20073;-84
2022/10/05 08:01:25;;;;;;;10.05;3.63;;;14.80;99.90;;;;;;4970563;28;20049;-84
2022/10/05 08:04:02;;;;;;;5.22;2.75;;;14.80;99.90;;;;;;4944355;28;20039;-84
2022/10/05 08:06:37;;;;;;;8.38;3.75;;;14.80;99.90;;;;;;4967142;28;20030;-83
2022/10/05 08:09:30;;;;;;;7.47;3.40;;;14.80;99.90;;;;;;4983832;28;20046;-84
2022/10/05 08:12:30;;;;;;;6.75;3.63;;;14.90;99.90;;;;;;4977727;28;20038;-84
2022/10/05 08:14:57;;;;;;;12.65;3.42;;;15.00;99.90;;;;;;4977720;28;20040;-84
2022/10/05 08:17:47;;;;;;;6.95;3.20;;;15.00;99.90;;;;;;4994082;28;20053;-84
2022/10/05 08:20:32;;;;;;;3.60;2.78;;;15.10;99.90;;;;;;4962948;28;20034;-84
2022/10/05 08:23:21;;;;;;;7.32;2.95;;;15.20;99.90;;;;;;4970948;28;20522;-83
2022/10/05 08:25:51;;;;;;;8.98;2.35;;;15.20;99.90;;;;;;4961337;28;20600;-84
2022/10/05 08:28:30;;;;;;;4.40;3.13;;;15.30;99.90;;;;;;4961074;28;20035;-83
2022/10/05 08:31:01;;;;;;;5.78;3.25;;;15.30;99.90;;;;;;4962096;28;20027;-83
2022/10/05 08:33:26;;;;;;;5.13;3.13;;;15.30;99.90;;;;;;4976131;28;20118;-83
2022/10/05 08:36:01;;;;;;;4.57;2.95;;;15.40;99.90;;;;;;4971474;28;20038;-83
2022/10/05 08:38:31;;;;;;;4.00;2.00;;;15.50;99.90;;;;;;4944435;28;20691;-83
2022/10/05 08:40:59;;;;;;;6.47;3.90;;;15.40;99.90;;;;;;4958628;28;20035;-84
2022/10/05 08:43:44;;;;;;;6.38;3.20;;;15.50;99.90;;;;;;4978957;28;20118;-84
2022/10/05 08:46:44;;;;;;;8.02;4.03;;;15.60;99.90;;;;;;4962155;28;20034;-83
2022/10/05 08:49:19;;;;;;;3.65;3.28;;;15.60;99.90;;;;;;4973782;28;20491;-84
2022/10/05 08:51:52;;;;;;;4.50;2.95;;;15.60;99.90;;;;;;4961768;28;20085;-83
2022/10/05 08:54:29;;;;;;;3.42;3.13;;;15.70;99.90;;;;;;4984078;28;20049;-83
2022/10/05 08:57:30;;;;;;;7.68;2.90;;;15.80;99.90;;;;;;5004995;28;20073;-83
2022/10/05 09:00:41;;;;;;;3.53;2.25;;;15.90;99.90;;;;;;4969110;28;20100;-83
2022/10/05 09:03:40;;;;;;;3.95;3.08;;;15.80;99.90;;;;;;4982794;28;20034;-84
2022/10/05 09:06:36;;;;;;;4.05;2.60;;;16.00;99.90;;;;;;5001655;28;20549;-84
2022/10/05 09:09:24;;;;;;;4.82;2.85;;;16.00;99.90;;;;;;4985876;28;20072;-85
2022/10/05 09:11:55;;;;;;;11.43;3.58;;;16.00;99.90;;;;;;4981162;28;20022;-85
2022/10/05 09:14:38;;;;;;;5.50;3.25;;;16.20;99.90;;;;;;5003491;28;20034;-84
2022/10/05 09:17:27;;;;;;;3.33;2.22;;;16.20;99.90;;;;;;4990553;28;20035;-84
2022/10/05 09:20:03;;;;;;;4.53;2.78;;;16.30;99.90;;;;;;4967074;28;20483;-84
2022/10/05 09:22:37;;;;;;;6.20;3.03;;;16.40;99.90;;;;;;4974896;28;20033;-84
2022/10/05 09:25:18;;;;;;;4.72;3.30;;;16.50;99.90;;;;;;4991115;28;20063;-84
2022/10/05 09:28:02;;;;;;;4.10;2.90;;;16.60;99.90;;;;;;4982335;28;20023;-84
2022/10/05 09:30:36;;;;;;;6.00;3.33;;;16.60;99.90;;;;;;4952043;28;20030;-85
2022/10/05 09:33:05;;;;;;;4.47;2.47;;;16.60;99.90;;;;;;4995623;28;20032;-84
2022/10/05 09:36:08;;;;;;;3.53;2.90;;;16.50;99.90;;;;;;5004392;28;20560;-84
2022/10/05 09:39:11;;;;;;;4.65;2.55;;;16.70;99.90;;;;;;4986511;28;20441;-84
2022/10/05 09:41:52;;;;;;;5.68;2.25;;;16.90;99.90;;;;;;5027885;28;20026;-85
2022/10/05 09:44:42;;;;;;;4.78;2.80;;;16.90;99.90;;;;;;5026678;28;20042;-85
2022/10/05 09:47:45;;;;;;;4.90;2.78;;;17.00;99.90;;;;;;4985860;28;20039;-85
2022/10/05 09:50:43;;;;;;;3.70;2.85;;;17.20;99.90;;;;;;4987884;28;20034;-85
2022/10/05 09:53:23;;;;;;;6.90;3.72;;;17.40;99.90;;;;;;4990780;28;20442;-85
2022/10/05 09:56:19;;;;;;;4.32;2.33;;;17.40;99.90;;;;;;4983422;28;20410;-85
2022/10/05 09:59:07;;;;;;;8.70;3.40;;;17.50;99.90;;;;;;4971037;28;20042;-86
2022/10/05 10:01:33;;;;;;;4.05;2.60;;;17.50;99.90;;;;;;4995320;28;20026;-85
2022/10/05 10:04:33;;;;;;;4.60;2.13;;;17.70;99.90;;;;;;5006721;28;20041;-86
2022/10/05 10:07:26;;;;;;;4.13;2.22;;;17.60;99.90;;;;;;4997368;28;20031;-86
2022/10/05 10:10:29;;;;;;;5.57;2.55;;;17.70;99.90;;;;;;5002631;28;20076;-86
2022/10/05 10:13:00;;;;;;;3.78;2.60;;;17.60;99.90;;;;;;5025080;28;20390;-86
2022/10/05 10:15:44;;;;;;;3.17;2.42;;;17.80;99.90;;;;;;4993731;28;20035;-87
2022/10/05 10:18:24;;;;;;;4.35;3.03;;;17.70;99.90;;;;;;4972814;28;20038;-86
2022/10/05 10:21:12;;;;;;;9.18;2.10;;;17.70;99.90;;;;;;4968598;28;20122;-87
2022/10/05 10:24:14;;;;;;;3.35;2.80;;;17.80;99.90;;;;;;5033160;28;20557;-87
2022/10/05 10:26:49;;;;;;;4.70;2.88;;;18.00;99.90;;;;;;4984524;28;20034;-87
2022/10/05 10:29:26;;;;;;;4.68;2.58;;;18.00;99.90;;;;;;4996836;28;20058;-87
2022/10/05 10:32:00;;;;;;;3.88;2.53;;;18.20;99.90;;;;;;5010326;28;20472;-87
2022/10/05 10:34:36;;;;;;;2.08;1.55;;;18.30;99.90;;;;;;4984029;28;20045;-86
2022/10/05 10:37:05;;;;;;;;;;;18.20;99.90;;;;;;4981362;28;20042;-88
2022/10/05 10:40:01;;;;;;;3.10;2.60;;;18.40;99.90;;;;;;4981320;28;19921;-86
2022/10/05 10:42:49;;;;;;;6.20;2.45;;;18.50;99.90;;;;;;4984532;28;20763;-87
2022/10/05 10:45:41;;;;;;;3.53;2.40;;;18.60;99.90;;;;;;4965308;28;20478;-87
2022/10/05 10:48:29;;;;;;;2.35;2.15;;;18.50;99.90;;;;;;4967945;28;20035;-86
2022/10/05 10:51:23;;;;;;;3.67;2.45;;;18.60;99.90;;;;;;4972139;28;20038;-87
2022/10/05 10:54:08;;;;;;;1.02;0.93;;;18.60;99.90;;;;;;4994254;28;20030;-87
2022/10/05 10:56:57;;;;;;;3.92;1.65;;;18.50;99.90;;;;;;5028880;28;20033;-86
2022/10/05 11:00:00;;;;;;;3.15;1.80;;;18.40;99.90;;;;;;4979546;28;20034;-89
2022/10/05 11:02:49;;;;;;;6.15;2.42;;;18.60;99.90;;;;;;5027290;28;20093;-87
2022/10/05 11:05:32;;;;;;;3.63;2.50;;;18.80;99.90;;;;;;5010914;28;20023;-87
2022/10/05 11:08:20;;;;;;;6.43;1.80;;;19.00;99.90;;;;;;4987295;28;20112;-87
2022/10/05 11:11:01;;;;;;;1.75;1.30;;;18.90;99.90;;;;;;4987540;28;20181;-88
2022/10/05 11:13:47;;;;;;;2.05;1.85;;;18.80;99.90;;;;;;5027693;28;20041;-87
2022/10/05 11:16:18;;;;;;;4.20;2.20;;;19.00;99.90;;;;;;5003448;28;20050;-88
2022/10/05 11:19:06;;;;;;;6.95;2.13;;;19.20;99.90;;;;;;4986005;28;20038;-90
2022/10/05 11:21:47;;;;;;;6.05;2.58;;;19.10;99.90;;;;;;5015820;28;20038;-89
2022/10/05 11:24:25;;;;;;;4.70;2.08;;;19.10;99.90;;;;;;5018547;28;20358;-89
2022/10/05 11:27:32;;;;;;;3.75;2.60;;;19.30;99.90;;;;;;5006751;28;20053;-89
2022/10/05 11:30:01;;;;;;;6.50;2.55;;;19.40;99.90;;;;;;4994406;28;20022;-87
2022/10/05 11:32:44;;;;;;;5.32;2.45;;;19.40;99.90;;;;;;5031268;28;20090;-88
2022/10/05 11:35:52;;;;;;;7.30;2.40;;;19.40;99.90;;;;;;5034244;28;20034;-90
2022/10/05 11:38:48;;;;;;;6.57;2.50;;;19.40;99.90;;;;;;4981182;28;20477;-83
2022/10/05 11:41:50;;;;;;;3.78;2.33;;;19.50;99.90;;;;;;5021060;28;20026;-83
2022/10/05 11:44:37;;;;;;;4.70;2.30;;;19.50;99.90;;;;;;5030757;28;20033;-83
2022/10/05 11:47:15;;;;;;;2.05;1.42;;;19.80;99.90;;;;;;5026525;28;20437;-83
2022/10/05 11:50:13;;;;;;;4.38;2.42;;;19.90;99.90;;;;;;5032860;28;20030;-83
2022/10/05 11:53:19;;;;;;;3.80;2.53;;;19.90;99.90;;;;;;5020584;28;20088;-83
2022/10/05 11:56:05;;;;;;;3.87;2.43;;;20.20;99.90;;;;;;5010911;28;20109;-84
2022/10/05 11:58:41;;;;;;;3.65;2.53;;;20.30;99.90;;;;;;5007358;28;20044;-90
2022/10/05 12:01:12;;;;;;;2.50;2.10;;;20.60;99.90;;;;;;5018430;28;20039;-90
2022/10/05 12:03:53;;;;;;;3.90;2.25;;;20.60;99.90;;;;;;5036148;28;20030;-90
2022/10/05 12:06:52;;;;;;;7.07;2.42;;;20.80;99.90;;;;;;5001535;28;20070;-86
2022/10/05 12:09:35;;;;;;;4.13;2.35;;;20.90;99.90;;;;;;4998596;28;20608;-88
2022/10/05 12:12:10;;;;;;;2.90;0.85;;;21.10;99.90;;;;;;5000542;28;20037;-88
2022/10/05 12:14:47;;;;;;;3.63;2.28;;;20.90;99.90;;;;;;5031586;28;20079;-89
2022/10/05 12:17:42;;;;;;;2.78;1.80;;;21.20;99.90;;;;;;5030534;28;20069;-89
2022/10/05 12:20:28;;;;;;;2.80;2.08;;;21.10;99.90;;;;;;5004953;28;20042;-88
2022/10/05 12:23:19;;;;;;;2.17;1.45;;;21.40;99.90;;;;;;5015278;28;20386;-91
2022/10/05 12:25:52;;;;;;;3.70;2.70;;;21.30;99.90;;;;;;4984973;28;20044;-91
2022/10/05 12:28:22;;;;;;;4.88;2.58;;;21.30;99.90;;;;;;5021107;28;20113;-90
2022/10/05 12:31:25;;;;;;;3.33;1.92;;;21.60;99.90;;;;;;4995140;28;20042;-90
2022/10/05 12:34:12;;;;;;;3.30;2.33;;;21.70;99.90;;;;;;5027209;28;20051;-92
2022/10/05 12:36:43;;;;;;;4.20;1.95;;;21.90;99.90;;;;;;5011556;28;20097;-91
2022/10/05 12:39:18;;;;;;;2.92;1.98;;;21.90;99.80;;;;;;4985958;28;20093;-89
2022/10/05 12:41:48;;;;;;;3.05;2.13;;;22.10;99.80;;;;;;4979659;28;20521;-91
2022/10/05 12:44:38;;;;;;;2.70;1.90;;;22.10;99.60;;;;;;4961819;28;20039;-92
2022/10/05 12:47:11;;;;;;;2.95;1.90;;;22.20;99.60;;;;;;4964617;28;20037;-92
2022/10/05 12:49:59;;;;;;;6.35;1.75;;;22.20;98.90;;;;;;4949706;28;20518;-90
2022/10/05 12:52:28;;;;;;;1.77;1.63;;;22.40;98.50;;;;;;4975171;28;20038;-92
2022/10/05 12:55:14;;;;;;;2.42;1.50;;;22.60;98.20;;;;;;5001408;28;20162;-86
2022/10/05 12:58:08;;;;;;;2.20;1.60;;;22.70;97.50;;;;;;4981005;28;20046;-88
2022/10/05 13:00:35;;;;;;;3.00;1.70;;;22.70;97.70;;;;;;4986532;28;20031;-92
2022/10/05 13:03:07;;;;;;;3.00;1.60;;;22.80;97.30;;;;;;4974307;28;20030;-93
2022/10/05 13:06:12;;;;;;;6.47;1.65;;;23.00;97.20;;;;;;4973599;28;20030;-88
2022/10/05 13:08:55;;;;;;;1.85;1.35;;;23.10;96.70;;;;;;4990640;28;20030;-89
2022/10/05 13:11:30;;;;;;;2.80;2.00;;;23.20;96.50;;;;;;4965016;28;20065;-92
2022/10/05 13:14:17;;;;;;;2.10;1.40;;;22.80;96.60;;;;;;4979522;28;20119;-89
2022/10/05 13:16:49;;;;;;;2.22;1.30;;;22.90;96.50;;;;;;4981173;28;20031;-91
2022/10/05 13:19:45;;;;;;;1.45;1.30;;;22.90;96.60;;;;;;4967159;28;20073;-91
2022/10/05 13:22:29;;;;;;;1.87;1.63;;;23.20;95.70;;;;;;4974366;28;20038;-91
2022/10/05 13:25:16;;;;;;;1.88;1.40;;;23.30;95.30;;;;;;4982764;28;20105;-92
2022/10/05 13:27:46;;;;;;;1.77;1.40;;;23.20;96.00;;;;;;5026282;28;20503;-92
2022/10/05 13:30:21;;;;;;;2.22;1.48;;;23.30;95.00;;;;;;5014134;28;20116;-90
2022/10/05 13:32:55;;;;;;;5.70;1.63;;;23.30;95.50;;;;;;4986604;28;20037;-90
2022/10/05 13:35:36;;;;;;;5.80;1.40;;;23.10;95.00;;;;;;5021590;28;20277;-91
2022/10/05 13:38:17;;;;;;;2.25;1.17;;;23.50;94.30;;;;;;4992963;28;20038;-91
2022/10/05 13:41:07;;;;;;;1.38;0.90;;;23.50;94.60;;;;;;4991680;28;20041;-88
2022/10/05 13:43:43;;;;;;;2.17;0.90;;;23.50;94.50;;;;;;5017686;28;20060;-87
2022/10/05 13:46:31;;;;;;;3.22;1.02;;;23.60;94.10;;;;;;4985754;28;20054;-91
2022/10/05 13:49:22;;;;;;;4.97;1.27;;;23.90;93.30;;;;;;4996475;28;20108;-89
2022/10/05 13:52:19;;;;;;;1.95;1.13;;;23.70;92.30;;;;;;4991713;28;20474;-90
2022/10/05 13:54:46;;;;;;;;;;;23.70;92.50;;;;;;4989664;28;20038;-87
2022/10/05 13:57:45;;;;;;;3.85;1.40;;;23.80;92.30;;;;;;4986786;28;19914;-87